This is the latest recevied weather packets stored in our database for station/object XE1E-15. If no packets are shown the sender has not sent any weather packets the latest 10 day(s).
| Time | Temp. | Humidity | Pressure | Rain* | Wind** | Luminosity | Snow |
|---|---|---|---|---|---|---|---|
| 1777581822 | 32.22° C | 17% | 1018.8 hPa | - | - | - | - |
| 1777580862 | 32.22° C | 15% | 1019.1 hPa | - | - | - | - |
| 1777579901 | 32.22° C | 16% | 1019.2 hPa | - | - | - | - |
| 1777576542 | 32.22° C | 17% | 1020.4 hPa | - | - | - | - |
| 1777573662 | 31.11° C | 17% | 1020.9 hPa | - | - | - | - |
| 1777568861 | 34.44° C | 17% | 1021.8 hPa | - | - | - | - |
| 1777566941 | 31.67° C | 19% | 1022.1 hPa | - | - | - | - |
| 1777565021 | 30.56° C | 22% | 1022.4 hPa | - | - | - | - |
| 1777561180 | 27.22° C | 25% | 1022.6 hPa | - | - | - | - |
| 1777557341 | 26.11° C | 29% | 1022.4 hPa | - | - | - | - |
| 1777554942 | 23.89° C | 31% | 1022.1 hPa | - | - | - | - |
| 1777550140 | 23.33° C | 33% | 1021.5 hPa | - | - | - | - |
| 1777548220 | 23.33° C | 32% | 1021.3 hPa | - | - | - | - |
| 1777545340 | 23.33° C | 32% | 1021.4 hPa | - | - | - | - |
| 1777544379 | 23.89° C | 32% | 1021.4 hPa | - | - | - | - |
| 1777542459 | 23.89° C | 32% | 1021.3 hPa | - | - | - | - |
| 1777541530 | 24.44° C | 32% | 1021.2 hPa | - | - | - | - |
| 1777541499 | 24.44° C | 32% | 1021.2 hPa | - | - | - | - |
| 1777540539 | 24.44° C | 31% | 1021.2 hPa | - | - | - | - |
| 1777539579 | 24.44° C | 31% | 1021.3 hPa | - | - | - | - |
| 1777537659 | 24.44° C | 31% | 1021.4 hPa | - | - | - | - |
| 1777536699 | 24.44° C | 31% | 1021.6 hPa | - | - | - | - |
| 1777535739 | 25° C | 30% | 1021.8 hPa | - | - | - | - |
| 1777534301 | 25° C | 30% | 1021.9 hPa | - | - | - | - |
| 1777533341 | 25° C | 29% | 1022.1 hPa | - | - | - | - |
* Rain since midnight (hover to see other rain measurements)
** Current wind speed in m/s (hover to see current wind gust speed)